Spicewood's Hourly Summary for Tuesday, July 10, 2018
Hour Temp
(f)
RH
(%)
Solar Rad.
(MJ/m2)
Rainfall
(in)
Wind
(mph)
7/10/2018 12:00 AM 74 97 0 0 0.9
7/10/2018 1:00 AM 73 98 0 0 0.6
7/10/2018 2:00 AM 72 98 0 0 0.55
7/10/2018 3:00 AM 72 98 0 0 0.5
7/10/2018 4:00 AM 73 97 0 0 0.92
7/10/2018 5:00 AM 0 0 0 0 0
7/10/2018 6:00 AM 73 98 0 0 0.49
7/10/2018 7:00 AM 73 98 0.01 0 0.41
7/10/2018 8:00 AM 76 98 0.26 0 0.64
7/10/2018 9:00 AM 79 87 0.61 0 2.28
7/10/2018 10:00 AM 81 74 1.46 0 5.18
7/10/2018 11:00 AM 84 64 2.05 0 4.17
7/10/2018 12:00 PM 87 58 1.55 0 4.06
7/10/2018 1:00 PM 90 51 2.88 0 4.42
7/10/2018 2:00 PM 91 46 3.18 0 4.91
7/10/2018 3:00 PM 92 41 2.89 0 5.82
7/10/2018 4:00 PM 92 43 2.95 0 5.16
7/10/2018 5:00 PM 91 43 1.74 0 5.26
7/10/2018 6:00 PM 91 43 1.57 0 5.67
7/10/2018 7:00 PM 91 43 1.1 0 5.73
7/10/2018 8:00 PM 90 42 0.45 0 4.75
7/10/2018 9:00 PM 87 53 0.04 0 2.51
7/10/2018 10:00 PM 83 60 0 0 2.56
7/10/2018 11:00 PM 81 67 0 0 1.17
Data Summary 79 66 22.74 0.00 2.86